Capt. W.d. Nunley — WDF6047 — position and weather

sailwx.info

Track history (hours):
 
Tides and Currents Weather Stations Pressure Air Temp Water Temp Dewpoint Dewpoint Depression Visibility Wind Speed Wind Dir Waves Ship Positions

Capt. W.d. Nunley

Owner: Florida Marine Transporters, LLC, Mandeville, LA. More information available from US FCC via Universal Licensing System and Coast Guard Vessel Documentation Center.

Last reported at 2018-Jan-19 20:20 UTC. Time now 2018-Feb-20 01:56 UTC.
Position N 38°38' W 090°11'.
Warning: this ship's position is 31 days out of date.

Length 37 m; draft 2.9 m.

Type: Ship (hazmat cat A). MMSI: 367470060.

Date/timePositionNaut miles runAvg speedWind from/ knotsBaromVisibWave heightAir tempDewpointWater temp
2018-Jan-19 20:20N 38°38' W 090°11'3 8.8
2018-Jan-19 19:58N 38°41' W 090°11'1 2.7
2018-Jan-19 19:30N 38°42' W 090°11'1 1.4
2018-Jan-19 18:30N 38°43' W 090°10'2 4.5
2018-Jan-19 17:58N 38°45' W 090°08'3 6.6
2018-Jan-19 17:30N 38°48' W 090°07'3 5.0
2018-Jan-19 16:54N 38°51' W 090°08'0 0.1
2018-Jan-19 16:28N 38°51' W 090°08'0 0.2
2018-Jan-19 16:00N 38°51' W 090°07'1 1.6
2018-Jan-19 15:30N 38°51' W 090°07'0 0.0
2018-Jan-19 15:00N 38°51' W 090°07'0 0.0
2018-Jan-19 14:30N 38°51' W 090°07'0 0.0
2018-Jan-19 14:00N 38°51' W 090°07'0 0.0
2018-Jan-19 13:30N 38°51' W 090°07'0 0.0
2018-Jan-19 13:00N 38°51' W 090°07'0 0.0
2018-Jan-19 12:30N 38°51' W 090°07'0 0.0
2018-Jan-19 12:00N 38°51' W 090°07'0 0.0
2018-Jan-19 11:30N 38°51' W 090°07'0 0.0
2018-Jan-19 11:00N 38°51' W 090°07'0 0.0
2018-Jan-19 10:30N 38°51' W 090°07'2 3.7
2018-Jan-19 10:00N 38°49' W 090°07'3 5.1
2018-Jan-19 09:30N 38°47' W 090°08'3 5.1
2018-Jan-19 09:00N 38°44' W 090°09'3 4.9
2018-Jan-19 08:30N 38°42' W 090°11'0 0.8
2018-Jan-19 07:55N 38°42' W 090°11'2 5.6
2018-Jan-19 07:30N 38°39' W 090°11'3 5.2
2018-Jan-19 07:00N 38°37' W 090°11'0 0.1
2018-Jan-18 22:51N 38°37' W 090°11'3 7.3
2018-Jan-18 22:30N 38°40' W 090°11'3 3.2
2018-Jan-18 21:34N 38°43' W 090°10'1 5.3
2018-Jan-18 21:24N 38°44' W 090°10'2 4.6
2018-Jan-18 20:55N 38°46' W 090°08'2 5.3
2018-Jan-18 20:30N 38°48' W 090°07'3 6.9
2018-Jan-18 20:00N 38°51' W 090°07'2 3.9
2018-Jan-18 19:30N 38°52' W 090°09'0 0.3
2018-Jan-18 19:00N 38°52' W 090°09'0 0.4
2018-Jan-18 18:30N 38°52' W 090°09'0 0.0
2018-Jan-18 18:00N 38°52' W 090°09'0 0.0
2018-Jan-18 17:30N 38°52' W 090°09'0 0.0
2018-Jan-18 17:00N 38°52' W 090°09'0 0.0
2018-Jan-18 16:30N 38°52' W 090°09'0 0.3
2018-Jan-18 15:59N 38°52' W 090°09'0 0.0
2018-Jan-18 15:30N 38°52' W 090°09'0 0.1
2018-Jan-18 15:00N 38°52' W 090°09'0 0.0
2018-Jan-18 14:30N 38°52' W 090°09'0 0.0
2018-Jan-18 14:00N 38°52' W 090°09'0 0.2
2018-Jan-18 13:30N 38°52' W 090°09'0 0.7
2018-Jan-18 13:00N 38°52' W 090°09'0 0.0
2018-Jan-18 12:30N 38°52' W 090°09'0 0.0
2018-Jan-18 12:00N 38°52' W 090°09'0 0.0
2018-Jan-18 11:30N 38°52' W 090°09'0 0.3
2018-Jan-18 11:00N 38°52' W 090°09'0 0.4
2018-Jan-18 10:30N 38°52' W 090°09'0 0.1
2018-Jan-18 10:00N 38°52' W 090°09'1 2.5
2018-Jan-18 09:30N 38°53' W 090°10'3 5.1
2018-Jan-18 09:00N 38°54' W 090°13'2 4.4
2018-Jan-18 08:30N 38°55' W 090°16'2 4.5
2018-Jan-18 08:00N 38°55' W 090°18'3 6.7
2018-Jan-18 07:30N 38°57' W 090°22'3 6.2
2018-Jan-18 07:00N 38°58' W 090°26'3 6.0
2018-Jan-18 06:30N 38°58' W 090°30'2 4.1
2018-Jan-18 06:00N 38°58' W 090°32'2 4.8
2018-Jan-18 05:30N 38°60' W 090°34'2 4.2
2018-Jan-18 05:00N 39°02' W 090°34'2 3.4
2018-Jan-18 04:30N 39°03' W 090°35'2 3.3
2018-Jan-18 04:00N 39°05' W 090°35'2 4.5
2018-Jan-18 03:30N 39°07' W 090°36'2 4.4
2018-Jan-18 03:00N 39°09' W 090°37'2 4.9
2018-Jan-18 02:30N 39°12' W 090°36'0 0.7
2018-Jan-18 02:00N 39°12' W 090°35'  
2018-Jan-12 15:00N 38°36' W 090°11'1 0.8
2018-Jan-12 14:20N 38°35' W 090°12'0 0.0
2018-Jan-12 14:00N 38°35' W 090°12'0 0.2
2018-Jan-12 13:30N 38°35' W 090°12'0 0.1
2018-Jan-12 09:50N 38°35' W 090°12'0 0.0
2018-Jan-12 09:30N 38°35' W 090°12'0 0.0
2018-Jan-12 09:00N 38°35' W 090°12'0 0.0
2018-Jan-12 08:30N 38°35' W 090°12'2 3.4
2018-Jan-12 07:55N 38°37' W 090°11'3 7.0
2018-Jan-12 07:30N 38°40' W 090°11'2 3.7
2018-Jan-12 06:51N 38°42' W 090°11'1 1.7
2018-Jan-12 06:30N 38°43' W 090°10'0 0.6
2018-Jan-12 06:00N 38°42' W 090°11'1 2.7
2018-Jan-12 05:29N 38°44' W 090°10'2 4.3
2018-Jan-12 05:00N 38°46' W 090°08'2 4.0
2018-Jan-12 04:30N 38°47' W 090°07'2 5.0
2018-Jan-12 04:00N 38°50' W 090°07'1 2.4
2018-Jan-12 03:30N 38°51' W 090°07'0 0.0
2018-Jan-12 03:00N 38°51' W 090°07'0 0.0
2018-Jan-12 02:30N 38°51' W 090°07'0 0.0
2018-Jan-12 02:00N 38°51' W 090°07'1 1.7
2018-Jan-12 01:30N 38°51' W 090°08'0 0.6
2018-Jan-12 01:00N 38°52' W 090°08'1 2.3
2018-Jan-12 00:30N 38°52' W 090°09'0 0.0
2018-Jan-12 00:00N 38°52' W 090°09'0 0.4
2018-Jan-11 23:30N 38°52' W 090°09'0 0.0
2018-Jan-11 23:00N 38°52' W 090°09'0 0.3
2018-Jan-11 22:30N 38°52' W 090°09'1 1.3
2018-Jan-11 21:57N 38°53' W 090°10'0 0.2
2018-Jan-11 21:30N 38°53' W 090°10'0 0.0
2018-Jan-11 21:00N 38°53' W 090°10'0 0.0
2018-Jan-11 20:30N 38°53' W 090°10'0 0.0
2018-Jan-11 19:59N 38°53' W 090°10'0 0.0
2018-Jan-11 19:30N 38°53' W 090°10'0 0.1
2018-Jan-11 19:00N 38°53' W 090°10'1 1.5
2018-Jan-11 18:29N 38°53' W 090°11'1 2.6
2018-Jan-11 18:00N 38°54' W 090°13'0 0.2
2018-Jan-11 17:30N 38°54' W 090°13'0 0.0
2018-Jan-11 17:00N 38°54' W 090°13'0 0.0
2018-Jan-11 16:30N 38°54' W 090°13'0 0.0
2018-Jan-11 16:00N 38°54' W 090°13'0 0.0
2018-Jan-11 15:30N 38°54' W 090°13'0 0.0
2018-Jan-11 15:00N 38°54' W 090°13'0 0.0
2018-Jan-11 14:30N 38°54' W 090°13'0 0.0
2018-Jan-11 14:00N 38°54' W 090°13'0 0.0
2018-Jan-11 13:30N 38°54' W 090°13'0 0.0
2018-Jan-11 13:00N 38°54' W 090°13'0 0.0
2018-Jan-11 12:30N 38°54' W 090°13'0 0.0
2018-Jan-11 12:00N 38°54' W 090°13'0 0.1
2018-Jan-11 11:30N 38°54' W 090°13'0 0.1
2018-Jan-11 11:00N 38°54' W 090°13'0 0.2
2018-Jan-11 10:30N 38°54' W 090°12'0 0.2
2018-Jan-11 10:00N 38°54' W 090°13'2 3.3
2018-Jan-11 09:30N 38°55' W 090°14'3 6.6
2018-Jan-11 09:00N 38°55' W 090°18'3 6.7
2018-Jan-11 08:30N 38°57' W 090°22'4 7.0
2018-Jan-11 08:00N 38°58' W 090°26'3 6.3
2018-Jan-11 07:30N 38°57' W 090°30'3 5.3
2018-Jan-11 07:00N 38°59' W 090°33'3 6.0
2018-Jan-11 06:30N 39°02' W 090°34'3 5.3
2018-Jan-11 06:00N 39°04' W 090°35'3 6.1
2018-Jan-11 05:30N 39°07' W 090°36'3 5.6
2018-Jan-11 04:57N 39°10' W 090°37'  
Track history (hours):
 
Tides and Currents Weather Stations Pressure Air Temp Water Temp Dewpoint Dewpoint Depression Visibility Wind Speed Wind Dir Waves Ship Positions

Capt. W.d. Nunley

Owner: Florida Marine Transporters, LLC, Mandeville, LA. More information available from US FCC via Universal Licensing System and Coast Guard Vessel Documentation Center.

Last reported at 2018-Jan-19 20:20 UTC. Time now 2018-Feb-20 01:56 UTC.
Position N 38°38' W 090°11'.
Warning: this ship's position is 31 days out of date.

Length 37 m; draft 2.9 m.

Type: Ship (hazmat cat A). MMSI: 367470060.

Date/timePositionNaut miles runAvg speedWind from/ knotsBaromVisibWave heightAir tempDewpointWater temp
2018-Jan-19 20:20N 38°38' W 090°11'3 8.8
2018-Jan-19 19:58N 38°41' W 090°11'1 2.7
2018-Jan-19 19:30N 38°42' W 090°11'1 1.4
2018-Jan-19 18:30N 38°43' W 090°10'2 4.5
2018-Jan-19 17:58N 38°45' W 090°08'3 6.6
2018-Jan-19 17:30N 38°48' W 090°07'3 5.0
2018-Jan-19 16:54N 38°51' W 090°08'0 0.1
2018-Jan-19 16:28N 38°51' W 090°08'0 0.2
2018-Jan-19 16:00N 38°51' W 090°07'1 1.6
2018-Jan-19 15:30N 38°51' W 090°07'0 0.0
2018-Jan-19 15:00N 38°51' W 090°07'0 0.0
2018-Jan-19 14:30N 38°51' W 090°07'0 0.0
2018-Jan-19 14:00N 38°51' W 090°07'0 0.0
2018-Jan-19 13:30N 38°51' W 090°07'0 0.0
2018-Jan-19 13:00N 38°51' W 090°07'0 0.0
2018-Jan-19 12:30N 38°51' W 090°07'0 0.0
2018-Jan-19 12:00N 38°51' W 090°07'0 0.0
2018-Jan-19 11:30N 38°51' W 090°07'0 0.0
2018-Jan-19 11:00N 38°51' W 090°07'0 0.0
2018-Jan-19 10:30N 38°51' W 090°07'2 3.7
2018-Jan-19 10:00N 38°49' W 090°07'3 5.1
2018-Jan-19 09:30N 38°47' W 090°08'3 5.1
2018-Jan-19 09:00N 38°44' W 090°09'3 4.9
2018-Jan-19 08:30N 38°42' W 090°11'0 0.8
2018-Jan-19 07:55N 38°42' W 090°11'2 5.6
2018-Jan-19 07:30N 38°39' W 090°11'3 5.2
2018-Jan-19 07:00N 38°37' W 090°11'0 0.1
2018-Jan-18 22:51N 38°37' W 090°11'3 7.3
2018-Jan-18 22:30N 38°40' W 090°11'3 3.2
2018-Jan-18 21:34N 38°43' W 090°10'1 5.3
2018-Jan-18 21:24N 38°44' W 090°10'2 4.6
2018-Jan-18 20:55N 38°46' W 090°08'2 5.3
2018-Jan-18 20:30N 38°48' W 090°07'3 6.9
2018-Jan-18 20:00N 38°51' W 090°07'2 3.9
2018-Jan-18 19:30N 38°52' W 090°09'0 0.3
2018-Jan-18 19:00N 38°52' W 090°09'0 0.4
2018-Jan-18 18:30N 38°52' W 090°09'0 0.0
2018-Jan-18 18:00N 38°52' W 090°09'0 0.0
2018-Jan-18 17:30N 38°52' W 090°09'0 0.0
2018-Jan-18 17:00N 38°52' W 090°09'0 0.0
2018-Jan-18 16:30N 38°52' W 090°09'0 0.3
2018-Jan-18 15:59N 38°52' W 090°09'0 0.0
2018-Jan-18 15:30N 38°52' W 090°09'0 0.1
2018-Jan-18 15:00N 38°52' W 090°09'0 0.0
2018-Jan-18 14:30N 38°52' W 090°09'0 0.0
2018-Jan-18 14:00N 38°52' W 090°09'0 0.2
2018-Jan-18 13:30N 38°52' W 090°09'0 0.7
2018-Jan-18 13:00N 38°52' W 090°09'0 0.0
2018-Jan-18 12:30N 38°52' W 090°09'0 0.0
2018-Jan-18 12:00N 38°52' W 090°09'0 0.0
2018-Jan-18 11:30N 38°52' W 090°09'0 0.3
2018-Jan-18 11:00N 38°52' W 090°09'0 0.4
2018-Jan-18 10:30N 38°52' W 090°09'0 0.1
2018-Jan-18 10:00N 38°52' W 090°09'1 2.5
2018-Jan-18 09:30N 38°53' W 090°10'3 5.1
2018-Jan-18 09:00N 38°54' W 090°13'2 4.4
2018-Jan-18 08:30N 38°55' W 090°16'2 4.5
2018-Jan-18 08:00N 38°55' W 090°18'3 6.7
2018-Jan-18 07:30N 38°57' W 090°22'3 6.2
2018-Jan-18 07:00N 38°58' W 090°26'3 6.0
2018-Jan-18 06:30N 38°58' W 090°30'2 4.1
2018-Jan-18 06:00N 38°58' W 090°32'2 4.8
2018-Jan-18 05:30N 38°60' W 090°34'2 4.2
2018-Jan-18 05:00N 39°02' W 090°34'2 3.4
2018-Jan-18 04:30N 39°03' W 090°35'2 3.3
2018-Jan-18 04:00N 39°05' W 090°35'2 4.5
2018-Jan-18 03:30N 39°07' W 090°36'2 4.4
2018-Jan-18 03:00N 39°09' W 090°37'2 4.9
2018-Jan-18 02:30N 39°12' W 090°36'0 0.7
2018-Jan-18 02:00N 39°12' W 090°35'  
2018-Jan-12 15:00N 38°36' W 090°11'1 0.8
2018-Jan-12 14:20N 38°35' W 090°12'0 0.0
2018-Jan-12 14:00N 38°35' W 090°12'0 0.2
2018-Jan-12 13:30N 38°35' W 090°12'0 0.1
2018-Jan-12 09:50N 38°35' W 090°12'0 0.0
2018-Jan-12 09:30N 38°35' W 090°12'0 0.0
2018-Jan-12 09:00N 38°35' W 090°12'0 0.0
2018-Jan-12 08:30N 38°35' W 090°12'2 3.4
2018-Jan-12 07:55N 38°37' W 090°11'3 7.0
2018-Jan-12 07:30N 38°40' W 090°11'2 3.7
2018-Jan-12 06:51N 38°42' W 090°11'1 1.7
2018-Jan-12 06:30N 38°43' W 090°10'0 0.6
2018-Jan-12 06:00N 38°42' W 090°11'1 2.7
2018-Jan-12 05:29N 38°44' W 090°10'2 4.3
2018-Jan-12 05:00N 38°46' W 090°08'2 4.0
2018-Jan-12 04:30N 38°47' W 090°07'2 5.0
2018-Jan-12 04:00N 38°50' W 090°07'1 2.4
2018-Jan-12 03:30N 38°51' W 090°07'0 0.0
2018-Jan-12 03:00N 38°51' W 090°07'0 0.0
2018-Jan-12 02:30N 38°51' W 090°07'0 0.0
2018-Jan-12 02:00N 38°51' W 090°07'1 1.7
2018-Jan-12 01:30N 38°51' W 090°08'0 0.6
2018-Jan-12 01:00N 38°52' W 090°08'1 2.3
2018-Jan-12 00:30N 38°52' W 090°09'0 0.0
2018-Jan-12 00:00N 38°52' W 090°09'0 0.4
2018-Jan-11 23:30N 38°52' W 090°09'0 0.0
2018-Jan-11 23:00N 38°52' W 090°09'0 0.3
2018-Jan-11 22:30N 38°52' W 090°09'1 1.3
2018-Jan-11 21:57N 38°53' W 090°10'0 0.2
2018-Jan-11 21:30N 38°53' W 090°10'0 0.0
2018-Jan-11 21:00N 38°53' W 090°10'0 0.0
2018-Jan-11 20:30N 38°53' W 090°10'0 0.0
2018-Jan-11 19:59N 38°53' W 090°10'0 0.0
2018-Jan-11 19:30N 38°53' W 090°10'0 0.1
2018-Jan-11 19:00N 38°53' W 090°10'1 1.5
2018-Jan-11 18:29N 38°53' W 090°11'1 2.6
2018-Jan-11 18:00N 38°54' W 090°13'0 0.2
2018-Jan-11 17:30N 38°54' W 090°13'0 0.0
2018-Jan-11 17:00N 38°54' W 090°13'0 0.0
2018-Jan-11 16:30N 38°54' W 090°13'0 0.0
2018-Jan-11 16:00N 38°54' W 090°13'0 0.0
2018-Jan-11 15:30N 38°54' W 090°13'0 0.0
2018-Jan-11 15:00N 38°54' W 090°13'0 0.0
2018-Jan-11 14:30N 38°54' W 090°13'0 0.0
2018-Jan-11 14:00N 38°54' W 090°13'0 0.0
2018-Jan-11 13:30N 38°54' W 090°13'0 0.0
2018-Jan-11 13:00N 38°54' W 090°13'0 0.0
2018-Jan-11 12:30N 38°54' W 090°13'0 0.0
2018-Jan-11 12:00N 38°54' W 090°13'0 0.1
2018-Jan-11 11:30N 38°54' W 090°13'0 0.1
2018-Jan-11 11:00N 38°54' W 090°13'0 0.2
2018-Jan-11 10:30N 38°54' W 090°12'0 0.2
2018-Jan-11 10:00N 38°54' W 090°13'2 3.3
2018-Jan-11 09:30N 38°55' W 090°14'3 6.6
2018-Jan-11 09:00N 38°55' W 090°18'3 6.7
2018-Jan-11 08:30N 38°57' W 090°22'4 7.0
2018-Jan-11 08:00N 38°58' W 090°26'3 6.3
2018-Jan-11 07:30N 38°57' W 090°30'3 5.3
2018-Jan-11 07:00N 38°59' W 090°33'3 6.0
2018-Jan-11 06:30N 39°02' W 090°34'3 5.3
2018-Jan-11 06:00N 39°04' W 090°35'3 6.1
2018-Jan-11 05:30N 39°07' W 090°36'3 5.6
2018-Jan-11 04:57N 39°10' W 090°37'  

Dump ship's entire track history